No particular awareness of the weather is required.    There are no Weather-warnings


Meteo18 Weather Cam more information Meteo18 Weather Cam


Thunder radar more information blitzortung!


Rain radar more information rain snow radar


Visit our other weather sites:

Template documentation
and downloads

And another site



Weather Underground History page Text

Daily Summary for March 11, 2017 Units:  Both    English   Metric
« Previous Day
Next Day »
Daily Weekly Monthly Yearly Custom
  High: Low: Average:
Temperature: 68.5 °F /  20.3 °C 38.8 °F /  3.8 °C 52 °F /  11.1 °C
Dew Point: 46 °F /  7.8 °C 35.6 °F /  2.0 °C 40.1 °F /  4.5 °C
Humidity: 91 % 33 % 67 %
Wind Speed: 6 mph /  9.7 km/h - 1.2 mph /  1.9 km/h
Wind Gust: 9 mph /  14.5 km/h - -
Wind:- - SSW
Pressure: 30.2 in /  1023.6 hPa 30 in /  1014.8 hPa -
Precipitation: 0 in /  0.0 mm    
Historical Graphs
 
 
Tabular Data for March 11, 2017
Time Temperature Dew Point Pressure Wind Wind Speed Wind Gust Humidity Rainfall Rate (Hourly)
00:02 47.8 °F /  8.8 °C 42.3 °F /  5.7 °C 30.2 in /  1023.2 hPa Calm   1 mph /  1.6 km/h 81 % 0 in /  0.0 mm
00:12 46.6 °F /  8.1 °C 42.1 °F /  5.6 °C 30.2 in /  1023.6 hPa Calm     84 % 0 in /  0.0 mm
00:17 46.8 °F /  8.2 °C 42.3 °F /  5.7 °C 30.2 in /  1023.2 hPa Calm     84 % 0 in /  0.0 mm
00:22 46.9 °F /  8.3 °C 42.4 °F /  5.8 °C 30.2 in /  1023.2 hPa Calm     84 % 0 in /  0.0 mm
00:27 47.5 °F /  8.6 °C 42.3 °F /  5.7 °C 30.2 in /  1023.2 hPa Calm   1 mph /  1.6 km/h 82 % 0 in /  0.0 mm
00:32 47.7 °F /  8.7 °C 42.4 °F /  5.8 °C 30.2 in /  1023.2 hPa NE 1 mph /  1.6 km/h 1 mph /  1.6 km/h 82 % 0 in /  0.0 mm
00:37 47.5 °F /  8.6 °C 42.3 °F /  5.7 °C 30.2 in /  1023.2 hPa NE 2 mph /  3.2 km/h 2 mph /  3.2 km/h 82 % 0 in /  0.0 mm
00:42 47.3 °F /  8.5 °C 42.1 °F /  5.6 °C 30.2 in /  1023.2 hPa Calm   2 mph /  3.2 km/h 82 % 0 in /  0.0 mm
00:47 47.1 °F /  8.4 °C 41.9 °F /  5.5 °C 30.2 in /  1023.2 hPa Calm   2 mph /  3.2 km/h 82 % 0 in /  0.0 mm
00:52 46.9 °F /  8.3 °C 41.7 °F /  5.4 °C 30.2 in /  1023.2 hPa Calm   2 mph /  3.2 km/h 82 % 0 in /  0.0 mm
00:57 46.8 °F /  8.2 °C 41.9 °F /  5.5 °C 30.2 in /  1023.2 hPa Calm   1 mph /  1.6 km/h 83 % 0 in /  0.0 mm
01:02 46.2 °F /  7.9 °C 41.4 °F /  5.2 °C 30.2 in /  1023.2 hPa Calm   1 mph /  1.6 km/h 83 % 0 in /  0.0 mm
01:12 45.3 °F /  7.4 °C 41 °F /  5.0 °C 30.2 in /  1023.2 hPa NNW 1 mph /  1.6 km/h   85 % 0 in /  0.0 mm
01:17 45.1 °F /  7.3 °C 41.2 °F /  5.1 °C 30.2 in /  1023.2 hPa Calm   1 mph /  1.6 km/h 86 % 0 in /  0.0 mm
01:22 45.1 °F /  7.3 °C 41.2 °F /  5.1 °C 30.2 in /  1023.2 hPa Calm   1 mph /  1.6 km/h 86 % 0 in /  0.0 mm
01:27 45 °F /  7.2 °C 41 °F /  5.0 °C 30.2 in /  1022.9 hPa NNW 1 mph /  1.6 km/h 1 mph /  1.6 km/h 86 % 0 in /  0.0 mm
01:32 45 °F /  7.2 °C 40.6 °F /  4.8 °C 30.2 in /  1023.2 hPa NNW 1 mph /  1.6 km/h 2 mph /  3.2 km/h 85 % 0 in /  0.0 mm
01:37 45 °F /  7.2 °C 40.5 °F /  4.7 °C 30.2 in /  1022.9 hPa NNW 1 mph /  1.6 km/h 2 mph /  3.2 km/h 84 % 0 in /  0.0 mm
01:42 44.4 °F /  6.9 °C 40.3 °F /  4.6 °C 30.2 in /  1022.9 hPa NW 1 mph /  1.6 km/h 2 mph /  3.2 km/h 85 % 0 in /  0.0 mm
01:47 44.1 °F /  6.7 °C 40.1 °F /  4.5 °C 30.2 in /  1022.9 hPa NW 1 mph /  1.6 km/h 1 mph /  1.6 km/h 86 % 0 in /  0.0 mm
01:52 43.3 °F /  6.3 °C 40.3 °F /  4.6 °C 30.2 in /  1022.9 hPa NW 1 mph /  1.6 km/h 2 mph /  3.2 km/h 89 % 0 in /  0.0 mm
01:57 43 °F /  6.1 °C 39.9 °F /  4.4 °C 30.2 in /  1022.9 hPa Calm   2 mph /  3.2 km/h 89 % 0 in /  0.0 mm
02:02 42.6 °F /  5.9 °C 39.9 °F /  4.4 °C 30.2 in /  1022.9 hPa NW 1 mph /  1.6 km/h 2 mph /  3.2 km/h 90 % 0 in /  0.0 mm
02:07 42.6 °F /  5.9 °C 39.9 °F /  4.4 °C 30.2 in /  1022.6 hPa Calm   1 mph /  1.6 km/h 90 % 0 in /  0.0 mm
02:12 43 °F /  6.1 °C 39.9 °F /  4.4 °C 30.2 in /  1022.6 hPa Calm   1 mph /  1.6 km/h 89 % 0 in /  0.0 mm
02:17 43.2 °F /  6.2 °C 39.9 °F /  4.4 °C 30.2 in /  1022.6 hPa Calm   1 mph /  1.6 km/h 88 % 0 in /  0.0 mm
02:22 43 °F /  6.1 °C 39.4 °F /  4.1 °C 30.2 in /  1022.6 hPa NW 1 mph /  1.6 km/h 2 mph /  3.2 km/h 87 % 0 in /  0.0 mm
02:32 42.8 °F /  6.0 °C 39.2 °F /  4.0 °C 30.2 in /  1022.2 hPa WNW 1 mph /  1.6 km/h 2 mph /  3.2 km/h 87 % 0 in /  0.0 mm
02:37 42.1 °F /  5.6 °C 38.8 °F /  3.8 °C 30.2 in /  1022.2 hPa WNW 1 mph /  1.6 km/h 2 mph /  3.2 km/h 88 % 0 in /  0.0 mm
02:42 41.5 °F /  5.3 °C 38.5 °F /  3.6 °C 30.2 in /  1022.2 hPa WNW 1 mph /  1.6 km/h 2 mph /  3.2 km/h 89 % 0 in /  0.0 mm
02:47 41.5 °F /  5.3 °C 38.8 °F /  3.8 °C 30.2 in /  1022.2 hPa WNW 1 mph /  1.6 km/h 2 mph /  3.2 km/h 90 % 0 in /  0.0 mm
02:52 41.5 °F /  5.3 °C 38.8 °F /  3.8 °C 30.2 in /  1021.9 hPa Calm   1 mph /  1.6 km/h 90 % 0 in /  0.0 mm
02:57 42.1 °F /  5.6 °C 39.4 °F /  4.1 °C 30.2 in /  1021.9 hPa North 1 mph /  1.6 km/h 1 mph /  1.6 km/h 90 % 0 in /  0.0 mm
03:02 42.3 °F /  5.7 °C 39 °F /  3.9 °C 30.2 in /  1021.9 hPa NNE 1 mph /  1.6 km/h 1 mph /  1.6 km/h 88 % 0 in /  0.0 mm
03:12 42.6 °F /  5.9 °C 39 °F /  3.9 °C 30.2 in /  1021.6 hPa North 1 mph /  1.6 km/h 2 mph /  3.2 km/h 87 % 0 in /  0.0 mm
03:17 43.2 °F /  6.2 °C 38.7 °F /  3.7 °C 30.2 in /  1021.6 hPa NNE 1 mph /  1.6 km/h 2 mph /  3.2 km/h 84 % 0 in /  0.0 mm
03:22 43 °F /  6.1 °C 38.5 °F /  3.6 °C 30.2 in /  1021.6 hPa Calm   2 mph /  3.2 km/h 84 % 0 in /  0.0 mm
03:32 42.8 °F /  6.0 °C 38.3 °F /  3.5 °C 30.2 in /  1021.6 hPa North 1 mph /  1.6 km/h 2 mph /  3.2 km/h 84 % 0 in /  0.0 mm
03:37 42.3 °F /  5.7 °C 38.1 °F /  3.4 °C 30.2 in /  1021.6 hPa Calm   1 mph /  1.6 km/h 85 % 0 in /  0.0 mm
03:42 42.1 °F /  5.6 °C 37.9 °F /  3.3 °C 30.2 in /  1021.6 hPa North 1 mph /  1.6 km/h 1 mph /  1.6 km/h 85 % 0 in /  0.0 mm
03:47 41.7 °F /  5.4 °C 37.8 °F /  3.2 °C 30.2 in /  1021.6 hPa NNE 2 mph /  3.2 km/h 2 mph /  3.2 km/h 86 % 0 in /  0.0 mm
03:52 41.5 °F /  5.3 °C 37.6 °F /  3.1 °C 30.2 in /  1021.6 hPa NNE 1 mph /  1.6 km/h 2 mph /  3.2 km/h 86 % 0 in /  0.0 mm
03:57 41.5 °F /  5.3 °C 37.9 °F /  3.3 °C 30.2 in /  1021.6 hPa NNE 1 mph /  1.6 km/h 2 mph /  3.2 km/h 87 % 0 in /  0.0 mm
04:02 41.5 °F /  5.3 °C 37.9 °F /  3.3 °C 30.2 in /  1021.6 hPa Calm   2 mph /  3.2 km/h 87 % 0 in /  0.0 mm
04:07 41.2 °F /  5.1 °C 37.6 °F /  3.1 °C 30.2 in /  1021.2 hPa NNE 1 mph /  1.6 km/h 2 mph /  3.2 km/h 87 % 0 in /  0.0 mm
04:12 41.4 °F /  5.2 °C 38.3 °F /  3.5 °C 30.2 in /  1021.2 hPa NE 1 mph /  1.6 km/h 2 mph /  3.2 km/h 89 % 0 in /  0.0 mm
04:17 41.4 °F /  5.2 °C 38.1 °F /  3.4 °C 30.2 in /  1021.2 hPa Calm   3 mph /  4.8 km/h 88 % 0 in /  0.0 mm
04:22 41.2 °F /  5.1 °C 38.1 °F /  3.4 °C 30.2 in /  1021.2 hPa Calm   3 mph /  4.8 km/h 89 % 0 in /  0.0 mm
04:27 40.8 °F /  4.9 °C 37.6 °F /  3.1 °C 30.2 in /  1021.2 hPa Calm   2 mph /  3.2 km/h 88 % 0 in /  0.0 mm
04:32 40.6 °F /  4.8 °C 37.4 °F /  3.0 °C 30.2 in /  1020.9 hPa NNE 1 mph /  1.6 km/h 3 mph /  4.8 km/h 88 % 0 in /  0.0 mm
04:37 40.6 °F /  4.8 °C 37.6 °F /  3.1 °C 30.2 in /  1020.9 hPa North 1 mph /  1.6 km/h 3 mph /  4.8 km/h 89 % 0 in /  0.0 mm
04:42 40.5 °F /  4.7 °C 37.2 °F /  2.9 °C 30.2 in /  1020.9 hPa Calm   3 mph /  4.8 km/h 88 % 0 in /  0.0 mm
04:47 39.9 °F /  4.4 °C 36.9 °F /  2.7 °C 30.2 in /  1020.9 hPa Calm   2 mph /  3.2 km/h 89 % 0 in /  0.0 mm
04:52 39.9 °F /  4.4 °C 36.9 °F /  2.7 °C 30.2 in /  1020.9 hPa NW 2 mph /  3.2 km/h 2 mph /  3.2 km/h 89 % 0 in /  0.0 mm
05:02 39 °F /  3.9 °C 36.1 °F /  2.3 °C 30.2 in /  1020.9 hPa WNW 1 mph /  1.6 km/h 2 mph /  3.2 km/h 89 % 0 in /  0.0 mm
05:12 40.1 °F /  4.5 °C 37.4 °F /  3.0 °C 30.2 in /  1020.9 hPa Calm   2 mph /  3.2 km/h 90 % 0 in /  0.0 mm
05:17 40.1 °F /  4.5 °C 36.9 °F /  2.7 °C 30.2 in /  1020.9 hPa Calm   1 mph /  1.6 km/h 88 % 0 in /  0.0 mm
05:22 39.4 °F /  4.1 °C 36.5 °F /  2.5 °C 30.2 in /  1020.9 hPa Calm   1 mph /  1.6 km/h 89 % 0 in /  0.0 mm
05:32 39.2 °F /  4.0 °C 36.5 °F /  2.5 °C 30.1 in /  1020.5 hPa Calm   1 mph /  1.6 km/h 90 % 0 in /  0.0 mm
05:37 39.4 °F /  4.1 °C 37 °F /  2.8 °C 30.1 in /  1020.5 hPa Calm   1 mph /  1.6 km/h 91 % 0 in /  0.0 mm
05:42 39.7 °F /  4.3 °C 37 °F /  2.8 °C 30.1 in /  1020.5 hPa WNW 1 mph /  1.6 km/h 1 mph /  1.6 km/h 90 % 0 in /  0.0 mm
05:47 39.6 °F /  4.2 °C 36.9 °F /  2.7 °C 30.1 in /  1020.5 hPa Calm   2 mph /  3.2 km/h 90 % 0 in /  0.0 mm
05:52 39.6 °F /  4.2 °C 36.9 °F /  2.7 °C 30.1 in /  1020.5 hPa North 1 mph /  1.6 km/h 2 mph /  3.2 km/h 90 % 0 in /  0.0 mm
05:57 39.6 °F /  4.2 °C 36.5 °F /  2.5 °C 30.1 in /  1020.5 hPa North 3 mph /  4.8 km/h 3 mph /  4.8 km/h 89 % 0 in /  0.0 mm
06:02 39 °F /  3.9 °C 36.1 °F /  2.3 °C 30.1 in /  1020.5 hPa North 3 mph /  4.8 km/h 3 mph /  4.8 km/h 89 % 0 in /  0.0 mm
06:12 39.4 °F /  4.1 °C 36.5 °F /  2.5 °C 30.1 in /  1020.5 hPa NNW 3 mph /  4.8 km/h 4 mph /  6.4 km/h 89 % 0 in /  0.0 mm
06:17 39.6 °F /  4.2 °C 36.3 °F /  2.4 °C 30.1 in /  1020.5 hPa Calm   4 mph /  6.4 km/h 88 % 0 in /  0.0 mm
06:22 39.4 °F /  4.1 °C 35.8 °F /  2.1 °C 30.1 in /  1020.5 hPa NNW 1 mph /  1.6 km/h 3 mph /  4.8 km/h 87 % 0 in /  0.0 mm
06:32 39.7 °F /  4.3 °C 36.5 °F /  2.5 °C 30.1 in /  1020.5 hPa North 1 mph /  1.6 km/h 3 mph /  4.8 km/h 88 % 0 in /  0.0 mm
06:42 39.9 °F /  4.4 °C 36.1 °F /  2.3 °C 30.1 in /  1020.5 hPa NNW 1 mph /  1.6 km/h 2 mph /  3.2 km/h 86 % 0 in /  0.0 mm
06:47 39.4 °F /  4.1 °C 35.8 °F /  2.1 °C 30.1 in /  1020.5 hPa Calm   2 mph /  3.2 km/h 87 % 0 in /  0.0 mm
06:52 38.8 °F /  3.8 °C 35.6 °F /  2.0 °C 30.1 in /  1020.5 hPa NW 1 mph /  1.6 km/h 2 mph /  3.2 km/h 88 % 0 in /  0.0 mm
06:57 39 °F /  3.9 °C 36.1 °F /  2.3 °C 30.1 in /  1020.5 hPa Calm   1 mph /  1.6 km/h 89 % 0 in /  0.0 mm
07:02 39 °F /  3.9 °C 35.8 °F /  2.1 °C 30.1 in /  1020.5 hPa Calm   1 mph /  1.6 km/h 88 % 0 in /  0.0 mm
07:07 39.2 °F /  4.0 °C 36 °F /  2.2 °C 30.1 in /  1020.5 hPa Calm   1 mph /  1.6 km/h 88 % 0 in /  0.0 mm
07:12 39.4 °F /  4.1 °C 35.8 °F /  2.1 °C 30.1 in /  1020.5 hPa Calm   1 mph /  1.6 km/h 87 % 0 in /  0.0 mm
07:17 39.7 °F /  4.3 °C 36.1 °F /  2.3 °C 30.1 in /  1020.5 hPa Calm     87 % 0 in /  0.0 mm
07:22 39.9 °F /  4.4 °C 36.1 °F /  2.3 °C 30.1 in /  1020.5 hPa Calm     86 % 0 in /  0.0 mm
07:27 40.5 °F /  4.7 °C 36.3 °F /  2.4 °C 30.1 in /  1020.5 hPa Calm     85 % 0 in /  0.0 mm
07:32 40.8 °F /  4.9 °C 36.1 °F /  2.3 °C 30.1 in /  1020.5 hPa Calm     83 % 0 in /  0.0 mm
07:37 41 °F /  5.0 °C 36.3 °F /  2.4 °C 30.1 in /  1020.5 hPa Calm     83 % 0 in /  0.0 mm
07:42 41 °F /  5.0 °C 36 °F /  2.2 °C 30.1 in /  1020.5 hPa Calm     82 % 0 in /  0.0 mm
07:47 41.4 °F /  5.2 °C 36.3 °F /  2.4 °C 30.1 in /  1020.5 hPa Calm     82 % 0 in /  0.0 mm
07:52 41.7 °F /  5.4 °C 36 °F /  2.2 °C 30.1 in /  1020.5 hPa Calm     80 % 0 in /  0.0 mm
07:57 42.3 °F /  5.7 °C 36.5 °F /  2.5 °C 30.1 in /  1020.5 hPa Calm     80 % 0 in /  0.0 mm
08:02 42.4 °F /  5.8 °C 36.3 °F /  2.4 °C 30.1 in /  1020.5 hPa Calm     79 % 0 in /  0.0 mm
08:07 42.4 °F /  5.8 °C 36.3 °F /  2.4 °C 30.1 in /  1020.5 hPa Calm     79 % 0 in /  0.0 mm
08:12 42.6 °F /  5.9 °C 36.3 °F /  2.4 °C 30.1 in /  1020.5 hPa Calm     78 % 0 in /  0.0 mm
08:17 42.3 °F /  5.7 °C 36 °F /  2.2 °C 30.1 in /  1020.2 hPa Calm     78 % 0 in /  0.0 mm
08:22 42.4 °F /  5.8 °C 36.3 °F /  2.4 °C 30.1 in /  1020.2 hPa Calm     79 % 0 in /  0.0 mm
08:27 42.6 °F /  5.9 °C 36.3 °F /  2.4 °C 30.1 in /  1020.2 hPa Calm     78 % 0 in /  0.0 mm
08:32 42.4 °F /  5.8 °C 36.3 °F /  2.4 °C 30.1 in /  1020.2 hPa Calm     79 % 0 in /  0.0 mm
08:37 42.6 °F /  5.9 °C 36.9 °F /  2.7 °C 30.1 in /  1020.2 hPa Calm     80 % 0 in /  0.0 mm
08:42 43.3 °F /  6.3 °C 37.6 °F /  3.1 °C 30.1 in /  1020.2 hPa Calm     80 % 0 in /  0.0 mm
08:52 44.4 °F /  6.9 °C 37.9 °F /  3.3 °C 30.1 in /  1020.2 hPa Calm     78 % 0 in /  0.0 mm
09:02 45.1 °F /  7.3 °C 37.8 °F /  3.2 °C 30.1 in /  1020.2 hPa NE 1 mph /  1.6 km/h   75 % 0 in /  0.0 mm
09:12 45.9 °F /  7.7 °C 38.3 °F /  3.5 °C 30.1 in /  1020.2 hPa Calm   3 mph /  4.8 km/h 75 % 0 in /  0.0 mm
09:17 46.2 °F /  7.9 °C 38.7 °F /  3.7 °C 30.1 in /  1020.2 hPa Calm   2 mph /  3.2 km/h 75 % 0 in /  0.0 mm
09:22 46.9 °F /  8.3 °C 39 °F /  3.9 °C 30.1 in /  1020.2 hPa Calm   2 mph /  3.2 km/h 74 % 0 in /  0.0 mm
09:32 47.7 °F /  8.7 °C 39.7 °F /  4.3 °C 30.1 in /  1020.2 hPa Calm   2 mph /  3.2 km/h 74 % 0 in /  0.0 mm
09:37 48 °F /  8.9 °C 39.7 °F /  4.3 °C 30.1 in /  1019.9 hPa ESE 2 mph /  3.2 km/h 3 mph /  4.8 km/h 73 % 0 in /  0.0 mm
09:42 48.6 °F /  9.2 °C 40.6 °F /  4.8 °C 30.1 in /  1019.9 hPa Calm   3 mph /  4.8 km/h 74 % 0 in /  0.0 mm
09:47 49.3 °F /  9.6 °C 40.6 °F /  4.8 °C 30.1 in /  1019.9 hPa SE 2 mph /  3.2 km/h 5 mph /  8.0 km/h 72 % 0 in /  0.0 mm
09:52 49.3 °F /  9.6 °C 41 °F /  5.0 °C 30.1 in /  1019.9 hPa SSE 1 mph /  1.6 km/h 5 mph /  8.0 km/h 73 % 0 in /  0.0 mm
09:57 49.3 °F /  9.6 °C 40.3 °F /  4.6 °C 30.1 in /  1019.9 hPa SE 1 mph /  1.6 km/h 6 mph /  9.7 km/h 71 % 0 in /  0.0 mm
10:02 49.5 °F /  9.7 °C 40.8 °F /  4.9 °C 30.1 in /  1019.9 hPa SE 2 mph /  3.2 km/h 6 mph /  9.7 km/h 72 % 0 in /  0.0 mm
10:07 49.5 °F /  9.7 °C 40.1 °F /  4.5 °C 30.1 in /  1019.9 hPa ESE 1 mph /  1.6 km/h 5 mph /  8.0 km/h 70 % 0 in /  0.0 mm
10:12 49.8 °F /  9.9 °C 41.2 °F /  5.1 °C 30.1 in /  1019.9 hPa Calm   5 mph /  8.0 km/h 72 % 0 in /  0.0 mm
10:17 50.2 °F /  10.1 °C 41.5 °F /  5.3 °C 30.1 in /  1019.9 hPa SSE 3 mph /  4.8 km/h 3 mph /  4.8 km/h 72 % 0 in /  0.0 mm
10:22 50.2 °F /  10.1 °C 41.9 °F /  5.5 °C 30.1 in /  1019.5 hPa East 2 mph /  3.2 km/h 3 mph /  4.8 km/h 73 % 0 in /  0.0 mm
10:27 50.4 °F /  10.2 °C 41.7 °F /  5.4 °C 30.1 in /  1019.5 hPa SE 3 mph /  4.8 km/h 6 mph /  9.7 km/h 72 % 0 in /  0.0 mm
10:32 50.7 °F /  10.4 °C 42.1 °F /  5.6 °C 30.1 in /  1019.5 hPa Calm   6 mph /  9.7 km/h 72 % 0 in /  0.0 mm
10:37 51.3 °F /  10.7 °C 43 °F /  6.1 °C 30.1 in /  1019.5 hPa SE 2 mph /  3.2 km/h 5 mph /  8.0 km/h 73 % 0 in /  0.0 mm
10:42 51.4 °F /  10.8 °C 42.8 °F /  6.0 °C 30.1 in /  1019.2 hPa ESE 1 mph /  1.6 km/h 5 mph /  8.0 km/h 72 % 0 in /  0.0 mm
10:52 53.1 °F /  11.7 °C 43.5 °F /  6.4 °C 30.1 in /  1019.2 hPa East 3 mph /  4.8 km/h 5 mph /  8.0 km/h 70 % 0 in /  0.0 mm
10:57 53.2 °F /  11.8 °C 44.1 °F /  6.7 °C 30.1 in /  1019.2 hPa SE 1 mph /  1.6 km/h 5 mph /  8.0 km/h 71 % 0 in /  0.0 mm
11:02 53.8 °F /  12.1 °C 43.9 °F /  6.6 °C 30.1 in /  1019.2 hPa ESE 2 mph /  3.2 km/h 6 mph /  9.7 km/h 69 % 0 in /  0.0 mm
11:07 54.1 °F /  12.3 °C 43.9 °F /  6.6 °C 30.1 in /  1019.2 hPa SE 2 mph /  3.2 km/h 6 mph /  9.7 km/h 68 % 0 in /  0.0 mm
11:12 54.7 °F /  12.6 °C 43.5 °F /  6.4 °C 30.1 in /  1019.2 hPa SE 2 mph /  3.2 km/h 6 mph /  9.7 km/h 66 % 0 in /  0.0 mm
11:17 54.7 °F /  12.6 °C 43.5 °F /  6.4 °C 30.1 in /  1019.2 hPa East 2 mph /  3.2 km/h 5 mph /  8.0 km/h 66 % 0 in /  0.0 mm
11:22 55 °F /  12.8 °C 43.5 °F /  6.4 °C 30.1 in /  1019.2 hPa ESE 3 mph /  4.8 km/h 4 mph /  6.4 km/h 65 % 0 in /  0.0 mm
11:27 55.4 °F /  13.0 °C 44.6 °F /  7.0 °C 30.1 in /  1019.2 hPa SE 3 mph /  4.8 km/h 6 mph /  9.7 km/h 67 % 0 in /  0.0 mm
11:32 55.9 °F /  13.3 °C 44.8 °F /  7.1 °C 30.1 in /  1018.8 hPa East 2 mph /  3.2 km/h 7 mph /  11.3 km/h 66 % 0 in /  0.0 mm
11:37 56.1 °F /  13.4 °C 44.1 °F /  6.7 °C 30.1 in /  1018.8 hPa SE 3 mph /  4.8 km/h 7 mph /  11.3 km/h 64 % 0 in /  0.0 mm
11:42 56.8 °F /  13.8 °C 45.7 °F /  7.6 °C 30.1 in /  1018.8 hPa SE 3 mph /  4.8 km/h 7 mph /  11.3 km/h 66 % 0 in /  0.0 mm
11:47 57.4 °F /  14.1 °C 45.3 °F /  7.4 °C 30.1 in /  1018.8 hPa ESE 4 mph /  6.4 km/h 6 mph /  9.7 km/h 64 % 0 in /  0.0 mm
11:52 57.6 °F /  14.2 °C 45.1 °F /  7.3 °C 30.1 in /  1018.8 hPa ESE 2 mph /  3.2 km/h 6 mph /  9.7 km/h 63 % 0 in /  0.0 mm
12:02 57.9 °F /  14.4 °C 44.6 °F /  7.0 °C 30.1 in /  1018.8 hPa SE 4 mph /  6.4 km/h 8 mph /  12.9 km/h 61 % 0 in /  0.0 mm
12:07 58.3 °F /  14.6 °C 44.4 °F /  6.9 °C 30.1 in /  1018.8 hPa SE 5 mph /  8.0 km/h 8 mph /  12.9 km/h 60 % 0 in /  0.0 mm
12:12 58.3 °F /  14.6 °C 45 °F /  7.2 °C 30.1 in /  1018.8 hPa SE 2 mph /  3.2 km/h 8 mph /  12.9 km/h 61 % 0 in /  0.0 mm
12:17 58.5 °F /  14.7 °C 45.1 °F /  7.3 °C 30.1 in /  1018.8 hPa ENE 4 mph /  6.4 km/h 7 mph /  11.3 km/h 61 % 0 in /  0.0 mm
12:22 58.8 °F /  14.9 °C 44.6 °F /  7.0 °C 30.1 in /  1018.8 hPa ENE 5 mph /  8.0 km/h 7 mph /  11.3 km/h 59 % 0 in /  0.0 mm
12:32 59.2 °F /  15.1 °C 45.7 °F /  7.6 °C 30.1 in /  1018.5 hPa SE 4 mph /  6.4 km/h 8 mph /  12.9 km/h 61 % 0 in /  0.0 mm
12:37 59.5 °F /  15.3 °C 45.1 °F /  7.3 °C 30.1 in /  1018.5 hPa SE 2 mph /  3.2 km/h 7 mph /  11.3 km/h 59 % 0 in /  0.0 mm
12:42 59.9 °F /  15.5 °C 44.6 °F /  7.0 °C 30.1 in /  1018.5 hPa SE 3 mph /  4.8 km/h 7 mph /  11.3 km/h 57 % 0 in /  0.0 mm
12:52 60.3 °F /  15.7 °C 44.4 °F /  6.9 °C 30.1 in /  1018.5 hPa ENE 3 mph /  4.8 km/h 6 mph /  9.7 km/h 56 % 0 in /  0.0 mm
12:57 60.6 °F /  15.9 °C 45.3 °F /  7.4 °C 30.1 in /  1018.5 hPa East 1 mph /  1.6 km/h 6 mph /  9.7 km/h 57 % 0 in /  0.0 mm
13:02 61.2 °F /  16.2 °C 44.8 °F /  7.1 °C 30.1 in /  1018.5 hPa ESE 3 mph /  4.8 km/h 7 mph /  11.3 km/h 55 % 0 in /  0.0 mm
13:12 61.2 °F /  16.2 °C 44.4 °F /  6.9 °C 30.1 in /  1018.5 hPa East 6 mph /  9.7 km/h 7 mph /  11.3 km/h 54 % 0 in /  0.0 mm
13:17 61.2 °F /  16.2 °C 42.4 °F /  5.8 °C 30.1 in /  1018.2 hPa SE 3 mph /  4.8 km/h 7 mph /  11.3 km/h 50 % 0 in /  0.0 mm
13:22 61.9 °F /  16.6 °C 46 °F /  7.8 °C 30.1 in /  1018.2 hPa East 2 mph /  3.2 km/h 7 mph /  11.3 km/h 56 % 0 in /  0.0 mm
13:27 61.9 °F /  16.6 °C 44.1 °F /  6.7 °C 30.1 in /  1018.2 hPa ESE 4 mph /  6.4 km/h 6 mph /  9.7 km/h 52 % 0 in /  0.0 mm
13:32 62.1 °F /  16.7 °C 44.2 °F /  6.8 °C 30.1 in /  1017.8 hPa SE 3 mph /  4.8 km/h 9 mph /  14.5 km/h 52 % 0 in /  0.0 mm
13:42 62.4 °F /  16.9 °C 43.5 °F /  6.4 °C 30.1 in /  1017.8 hPa SSE 2 mph /  3.2 km/h 8 mph /  12.9 km/h 50 % 0 in /  0.0 mm
13:47 62.4 °F /  16.9 °C 42.4 °F /  5.8 °C 30.1 in /  1017.8 hPa East 2 mph /  3.2 km/h 7 mph /  11.3 km/h 48 % 0 in /  0.0 mm
13:52 62.2 °F /  16.8 °C 42.8 °F /  6.0 °C 30.1 in /  1017.8 hPa SSE 1 mph /  1.6 km/h 7 mph /  11.3 km/h 49 % 0 in /  0.0 mm
13:57 62.6 °F /  17.0 °C 44.2 °F /  6.8 °C 30.1 in /  1017.5 hPa ESE 3 mph /  4.8 km/h 6 mph /  9.7 km/h 51 % 0 in /  0.0 mm
14:02 62.8 °F /  17.1 °C 44.4 °F /  6.9 °C 30.1 in /  1017.5 hPa ESE 3 mph /  4.8 km/h 7 mph /  11.3 km/h 51 % 0 in /  0.0 mm
14:12 63 °F /  17.2 °C 41.9 °F /  5.5 °C 30 in /  1017.2 hPa SE 5 mph /  8.0 km/h 7 mph /  11.3 km/h 46 % 0 in /  0.0 mm
14:17 63.1 °F /  17.3 °C 42.1 °F /  5.6 °C 30 in /  1017.2 hPa SE 3 mph /  4.8 km/h 6 mph /  9.7 km/h 46 % 0 in /  0.0 mm
14:22 63.1 °F /  17.3 °C 40.3 °F /  4.6 °C 30 in /  1017.2 hPa SE 4 mph /  6.4 km/h 6 mph /  9.7 km/h 43 % 0 in /  0.0 mm
14:27 63.3 °F /  17.4 °C 39.9 °F /  4.4 °C 30 in /  1016.8 hPa ESE 4 mph /  6.4 km/h 7 mph /  11.3 km/h 42 % 0 in /  0.0 mm
14:32 63.1 °F /  17.3 °C 40.8 °F /  4.9 °C 30 in /  1016.8 hPa ESE 1 mph /  1.6 km/h 7 mph /  11.3 km/h 44 % 0 in /  0.0 mm
14:42 63.9 °F /  17.7 °C 43.2 °F /  6.2 °C 30 in /  1016.8 hPa ENE 2 mph /  3.2 km/h 6 mph /  9.7 km/h 47 % 0 in /  0.0 mm
14:47 63.9 °F /  17.7 °C 42.1 °F /  5.6 °C 30 in /  1016.8 hPa SE 5 mph /  8.0 km/h 6 mph /  9.7 km/h 45 % 0 in /  0.0 mm
14:52 64.2 °F /  17.9 °C 41.9 °F /  5.5 °C 30 in /  1016.8 hPa SE 2 mph /  3.2 km/h 6 mph /  9.7 km/h 44 % 0 in /  0.0 mm
14:57 64.2 °F /  17.9 °C 40.1 °F /  4.5 °C 30 in /  1016.8 hPa SSE 2 mph /  3.2 km/h 6 mph /  9.7 km/h 41 % 0 in /  0.0 mm
15:02 64.8 °F /  18.2 °C 43 °F /  6.1 °C 30 in /  1016.5 hPa SE 2 mph /  3.2 km/h 6 mph /  9.7 km/h 45 % 0 in /  0.0 mm
15:07 65.1 °F /  18.4 °C 43.3 °F /  6.3 °C 30 in /  1016.5 hPa South 2 mph /  3.2 km/h 6 mph /  9.7 km/h 45 % 0 in /  0.0 mm
15:12 64.9 °F /  18.3 °C 39.4 °F /  4.1 °C 30 in /  1016.5 hPa SE 3 mph /  4.8 km/h 6 mph /  9.7 km/h 39 % 0 in /  0.0 mm
15:17 64.9 °F /  18.3 °C 41.4 °F /  5.2 °C 30 in /  1016.5 hPa ESE 3 mph /  4.8 km/h 5 mph /  8.0 km/h 42 % 0 in /  0.0 mm
15:22 65.5 °F /  18.6 °C 40.5 °F /  4.7 °C 30 in /  1016.1 hPa SSE 1 mph /  1.6 km/h 5 mph /  8.0 km/h 40 % 0 in /  0.0 mm
15:32 65.7 °F /  18.7 °C 40.6 °F /  4.8 °C 30 in /  1016.1 hPa East 2 mph /  3.2 km/h 4 mph /  6.4 km/h 40 % 0 in /  0.0 mm
15:37 65.7 °F /  18.7 °C 37.9 °F /  3.3 °C 30 in /  1016.1 hPa Calm   4 mph /  6.4 km/h 36 % 0 in /  0.0 mm
15:42 66 °F /  18.9 °C 39 °F /  3.9 °C 30 in /  1016.1 hPa ESE 1 mph /  1.6 km/h 4 mph /  6.4 km/h 37 % 0 in /  0.0 mm
15:47 66.4 °F /  19.1 °C 39.4 °F /  4.1 °C 30 in /  1016.1 hPa East 3 mph /  4.8 km/h 3 mph /  4.8 km/h 37 % 0 in /  0.0 mm
15:52 66.4 °F /  19.1 °C 41.4 °F /  5.2 °C 30 in /  1016.1 hPa Calm   4 mph /  6.4 km/h 40 % 0 in /  0.0 mm
15:57 66.4 °F /  19.1 °C 38.7 °F /  3.7 °C 30 in /  1016.1 hPa East 2 mph /  3.2 km/h 5 mph /  8.0 km/h 36 % 0 in /  0.0 mm
16:02 66.6 °F /  19.2 °C 39.6 °F /  4.2 °C 30 in /  1016.1 hPa ENE 3 mph /  4.8 km/h 5 mph /  8.0 km/h 37 % 0 in /  0.0 mm
16:07 66.7 °F /  19.3 °C 39.6 °F /  4.2 °C 30 in /  1015.8 hPa East 1 mph /  1.6 km/h 5 mph /  8.0 km/h 37 % 0 in /  0.0 mm
16:12 66.7 °F /  19.3 °C 39 °F /  3.9 °C 30 in /  1015.8 hPa ESE 1 mph /  1.6 km/h 4 mph /  6.4 km/h 36 % 0 in /  0.0 mm
16:17 66.7 °F /  19.3 °C 37.4 °F /  3.0 °C 30 in /  1015.8 hPa East 3 mph /  4.8 km/h 4 mph /  6.4 km/h 34 % 0 in /  0.0 mm
16:22 66.9 °F /  19.4 °C 36.9 °F /  2.7 °C 30 in /  1015.8 hPa SE 2 mph /  3.2 km/h 4 mph /  6.4 km/h 33 % 0 in /  0.0 mm
16:27 66.7 °F /  19.3 °C 36.7 °F /  2.6 °C 30 in /  1015.8 hPa Calm   4 mph /  6.4 km/h 33 % 0 in /  0.0 mm
16:37 66.7 °F /  19.3 °C 37.4 °F /  3.0 °C 30 in /  1015.8 hPa SE 1 mph /  1.6 km/h 5 mph /  8.0 km/h 34 % 0 in /  0.0 mm
16:42 66.7 °F /  19.3 °C 39 °F /  3.9 °C 30 in /  1015.8 hPa SE 3 mph /  4.8 km/h 5 mph /  8.0 km/h 36 % 0 in /  0.0 mm
16:47 66.6 °F /  19.2 °C 39.6 °F /  4.2 °C 30 in /  1015.8 hPa Calm   4 mph /  6.4 km/h 37 % 0 in /  0.0 mm
16:52 66.9 °F /  19.4 °C 39 °F /  3.9 °C 30 in /  1015.5 hPa Calm   4 mph /  6.4 km/h 36 % 0 in /  0.0 mm
16:57 67.3 °F /  19.6 °C 38.7 °F /  3.7 °C 30 in /  1015.8 hPa Calm   4 mph /  6.4 km/h 35 % 0 in /  0.0 mm
17:02 67.5 °F /  19.7 °C 38.8 °F /  3.8 °C 30 in /  1015.5 hPa SSE 1 mph /  1.6 km/h 1 mph /  1.6 km/h 35 % 0 in /  0.0 mm
17:12 68.5 °F /  20.3 °C 41.2 °F /  5.1 °C 30 in /  1015.5 hPa Calm   2 mph /  3.2 km/h 37 % 0 in /  0.0 mm
17:17 68.4 °F /  20.2 °C 41 °F /  5.0 °C 30 in /  1015.5 hPa Calm   2 mph /  3.2 km/h 37 % 0 in /  0.0 mm
17:22 67.6 °F /  19.8 °C 40.5 °F /  4.7 °C 30 in /  1015.5 hPa Calm   1 mph /  1.6 km/h 37 % 0 in /  0.0 mm
17:27 67.5 °F /  19.7 °C 39.6 °F /  4.2 °C 30 in /  1015.5 hPa Calm     36 % 0 in /  0.0 mm
17:32 67.3 °F /  19.6 °C 39.4 °F /  4.1 °C 30 in /  1015.5 hPa Calm     36 % 0 in /  0.0 mm
17:42 66.6 °F /  19.2 °C 40.1 °F /  4.5 °C 30 in /  1015.5 hPa Calm     38 % 0 in /  0.0 mm
17:47 66.6 °F /  19.2 °C 40.1 °F /  4.5 °C 30 in /  1015.5 hPa Calm     38 % 0 in /  0.0 mm
17:52 66.6 °F /  19.2 °C 40.8 °F /  4.9 °C 30 in /  1015.5 hPa Calm     39 % 0 in /  0.0 mm
18:02 65.3 °F /  18.5 °C 39.7 °F /  4.3 °C 30 in /  1015.1 hPa Calm     39 % 0 in /  0.0 mm
18:12 63.5 °F /  17.5 °C 39.9 °F /  4.4 °C 30 in /  1015.5 hPa Calm   1 mph /  1.6 km/h 42 % 0 in /  0.0 mm
18:17 62.8 °F /  17.1 °C 39.9 °F /  4.4 °C 30 in /  1015.5 hPa West 1 mph /  1.6 km/h 1 mph /  1.6 km/h 43 % 0 in /  0.0 mm
18:22 62.8 °F /  17.1 °C 39.4 °F /  4.1 °C 30 in /  1015.5 hPa West 1 mph /  1.6 km/h 1 mph /  1.6 km/h 42 % 0 in /  0.0 mm
18:27 62.4 °F /  16.9 °C 39.6 °F /  4.2 °C 30 in /  1015.5 hPa West 1 mph /  1.6 km/h 1 mph /  1.6 km/h 43 % 0 in /  0.0 mm
18:32 61.3 °F /  16.3 °C 41.5 °F /  5.3 °C 30 in /  1015.5 hPa WNW 1 mph /  1.6 km/h 1 mph /  1.6 km/h 48 % 0 in /  0.0 mm
18:42 60.3 °F /  15.7 °C 42.1 °F /  5.6 °C 30 in /  1015.5 hPa WNW 1 mph /  1.6 km/h 2 mph /  3.2 km/h 51 % 0 in /  0.0 mm
18:47 60.1 °F /  15.6 °C 43 °F /  6.1 °C 30 in /  1015.5 hPa WNW 1 mph /  1.6 km/h 2 mph /  3.2 km/h 53 % 0 in /  0.0 mm
18:52 59.7 °F /  15.4 °C 41 °F /  5.0 °C 30 in /  1015.5 hPa WNW 1 mph /  1.6 km/h 2 mph /  3.2 km/h 50 % 0 in /  0.0 mm
18:57 60.1 °F /  15.6 °C 39.2 °F /  4.0 °C 30 in /  1015.5 hPa WNW 1 mph /  1.6 km/h 2 mph /  3.2 km/h 46 % 0 in /  0.0 mm
19:02 60.3 °F /  15.7 °C 38.8 °F /  3.8 °C 30 in /  1015.5 hPa NW 1 mph /  1.6 km/h 2 mph /  3.2 km/h 45 % 0 in /  0.0 mm
19:12 59.4 °F /  15.2 °C 39.7 °F /  4.3 °C 30 in /  1015.5 hPa NNW 1 mph /  1.6 km/h 3 mph /  4.8 km/h 48 % 0 in /  0.0 mm
19:22 58.8 °F /  14.9 °C 40.3 °F /  4.6 °C 30 in /  1015.5 hPa NNW 1 mph /  1.6 km/h 3 mph /  4.8 km/h 50 % 0 in /  0.0 mm
19:27 58.6 °F /  14.8 °C 40.6 °F /  4.8 °C 30 in /  1015.5 hPa NNW 1 mph /  1.6 km/h 2 mph /  3.2 km/h 51 % 0 in /  0.0 mm
19:32 58.5 °F /  14.7 °C 40.5 °F /  4.7 °C 30 in /  1015.5 hPa Calm   2 mph /  3.2 km/h 51 % 0 in /  0.0 mm
19:37 58.3 °F /  14.6 °C 40.8 °F /  4.9 °C 30 in /  1015.5 hPa WNW 1 mph /  1.6 km/h 2 mph /  3.2 km/h 52 % 0 in /  0.0 mm
19:42 57.6 °F /  14.2 °C 40.6 °F /  4.8 °C 30 in /  1015.5 hPa WNW 1 mph /  1.6 km/h 2 mph /  3.2 km/h 53 % 0 in /  0.0 mm
19:47 57.4 °F /  14.1 °C 39.9 °F /  4.4 °C 30 in /  1015.5 hPa NW 1 mph /  1.6 km/h 1 mph /  1.6 km/h 52 % 0 in /  0.0 mm
19:52 57.4 °F /  14.1 °C 41.4 °F /  5.2 °C 30 in /  1015.5 hPa NNW 1 mph /  1.6 km/h 2 mph /  3.2 km/h 55 % 0 in /  0.0 mm
19:57 57 °F /  13.9 °C 41 °F /  5.0 °C 30 in /  1015.5 hPa Calm   3 mph /  4.8 km/h 55 % 0 in /  0.0 mm
20:02 56.3 °F /  13.5 °C 40.3 °F /  4.6 °C 30 in /  1015.5 hPa NW 1 mph /  1.6 km/h 3 mph /  4.8 km/h 55 % 0 in /  0.0 mm
20:07 56.7 °F /  13.7 °C 40.3 °F /  4.6 °C 30 in /  1015.5 hPa NW 1 mph /  1.6 km/h 2 mph /  3.2 km/h 54 % 0 in /  0.0 mm
20:12 56.5 °F /  13.6 °C 41.4 °F /  5.2 °C 30 in /  1015.5 hPa WNW 2 mph /  3.2 km/h 2 mph /  3.2 km/h 57 % 0 in /  0.0 mm
20:17 55.2 °F /  12.9 °C 41.5 °F /  5.3 °C 30 in /  1015.5 hPa WNW 2 mph /  3.2 km/h 2 mph /  3.2 km/h 60 % 0 in /  0.0 mm
20:22 55 °F /  12.8 °C 41.9 °F /  5.5 °C 30 in /  1015.5 hPa WNW 1 mph /  1.6 km/h 2 mph /  3.2 km/h 61 % 0 in /  0.0 mm
20:27 54.7 °F /  12.6 °C 41.9 °F /  5.5 °C 30 in /  1015.5 hPa WNW 1 mph /  1.6 km/h 2 mph /  3.2 km/h 62 % 0 in /  0.0 mm
20:32 54 °F /  12.2 °C 41.7 °F /  5.4 °C 30 in /  1015.5 hPa WNW 1 mph /  1.6 km/h 2 mph /  3.2 km/h 63 % 0 in /  0.0 mm
20:37 53.2 °F /  11.8 °C 42.3 °F /  5.7 °C 30 in /  1015.5 hPa WNW 1 mph /  1.6 km/h 2 mph /  3.2 km/h 66 % 0 in /  0.0 mm
20:42 53.1 °F /  11.7 °C 42.1 °F /  5.6 °C 30 in /  1015.5 hPa West 1 mph /  1.6 km/h 2 mph /  3.2 km/h 66 % 0 in /  0.0 mm
20:47 53.1 °F /  11.7 °C 41.2 °F /  5.1 °C 30 in /  1015.5 hPa WNW 2 mph /  3.2 km/h 2 mph /  3.2 km/h 64 % 0 in /  0.0 mm
20:52 53.8 °F /  12.1 °C 39.7 °F /  4.3 °C 30 in /  1015.5 hPa WNW 1 mph /  1.6 km/h 2 mph /  3.2 km/h 59 % 0 in /  0.0 mm
20:57 54.1 °F /  12.3 °C 40.1 °F /  4.5 °C 30 in /  1015.5 hPa Calm   2 mph /  3.2 km/h 59 % 0 in /  0.0 mm
21:02 54.9 °F /  12.7 °C 39.9 °F /  4.4 °C 30 in /  1015.5 hPa Calm   2 mph /  3.2 km/h 57 % 0 in /  0.0 mm
21:07 55.2 °F /  12.9 °C 39.7 °F /  4.3 °C 30 in /  1015.5 hPa NW 1 mph /  1.6 km/h 2 mph /  3.2 km/h 56 % 0 in /  0.0 mm
21:12 55.6 °F /  13.1 °C 40.1 °F /  4.5 °C 30 in /  1015.5 hPa NNW 2 mph /  3.2 km/h 2 mph /  3.2 km/h 56 % 0 in /  0.0 mm
21:17 55.8 °F /  13.2 °C 40.3 °F /  4.6 °C 30 in /  1015.5 hPa NNW 1 mph /  1.6 km/h 3 mph /  4.8 km/h 56 % 0 in /  0.0 mm
21:27 55.6 °F /  13.1 °C 40.1 °F /  4.5 °C 30 in /  1015.5 hPa NW 1 mph /  1.6 km/h 3 mph /  4.8 km/h 56 % 0 in /  0.0 mm
21:32 55.2 °F /  12.9 °C 40.6 °F /  4.8 °C 30 in /  1015.5 hPa North 1 mph /  1.6 km/h 2 mph /  3.2 km/h 58 % 0 in /  0.0 mm
21:42 54.7 °F /  12.6 °C 40.3 °F /  4.6 °C 30 in /  1015.5 hPa Calm   2 mph /  3.2 km/h 58 % 0 in /  0.0 mm
21:47 54.3 °F /  12.4 °C 40.3 °F /  4.6 °C 30 in /  1015.5 hPa NNW 2 mph /  3.2 km/h 2 mph /  3.2 km/h 59 % 0 in /  0.0 mm
21:57 54.5 °F /  12.5 °C 40.1 °F /  4.5 °C 30 in /  1015.5 hPa NNW 1 mph /  1.6 km/h 2 mph /  3.2 km/h 58 % 0 in /  0.0 mm
22:02 54.1 °F /  12.3 °C 39.7 °F /  4.3 °C 30 in /  1015.5 hPa NNW 2 mph /  3.2 km/h 2 mph /  3.2 km/h 58 % 0 in /  0.0 mm
22:12 54.1 °F /  12.3 °C 39.2 °F /  4.0 °C 30 in /  1015.5 hPa North 1 mph /  1.6 km/h 2 mph /  3.2 km/h 57 % 0 in /  0.0 mm
22:17 54.1 °F /  12.3 °C 38.8 °F /  3.8 °C 30 in /  1015.1 hPa North 1 mph /  1.6 km/h 2 mph /  3.2 km/h 56 % 0 in /  0.0 mm
22:22 54.1 °F /  12.3 °C 39.2 °F /  4.0 °C 30 in /  1015.1 hPa Calm   2 mph /  3.2 km/h 57 % 0 in /  0.0 mm
22:32 53.6 °F /  12.0 °C 39.2 °F /  4.0 °C 30 in /  1015.1 hPa NW 1 mph /  1.6 km/h 2 mph /  3.2 km/h 58 % 0 in /  0.0 mm
22:37 52.5 °F /  11.4 °C 39 °F /  3.9 °C 30 in /  1015.1 hPa WNW 2 mph /  3.2 km/h 2 mph /  3.2 km/h 60 % 0 in /  0.0 mm
22:42 52.3 °F /  11.3 °C 38.5 °F /  3.6 °C 30 in /  1015.1 hPa WNW 1 mph /  1.6 km/h 2 mph /  3.2 km/h 59 % 0 in /  0.0 mm
22:47 52.9 °F /  11.6 °C 38.1 °F /  3.4 °C 30 in /  1015.1 hPa WNW 1 mph /  1.6 km/h 2 mph /  3.2 km/h 57 % 0 in /  0.0 mm
22:52 52.3 °F /  11.3 °C 40.1 °F /  4.5 °C 30 in /  1015.1 hPa WNW 1 mph /  1.6 km/h 2 mph /  3.2 km/h 63 % 0 in /  0.0 mm
22:57 51.6 °F /  10.9 °C 39.9 °F /  4.4 °C 30 in /  1015.1 hPa WNW 1 mph /  1.6 km/h 1 mph /  1.6 km/h 64 % 0 in /  0.0 mm
23:02 51.6 °F /  10.9 °C 40.3 °F /  4.6 °C 30 in /  1015.1 hPa WNW 1 mph /  1.6 km/h 2 mph /  3.2 km/h 65 % 0 in /  0.0 mm
23:07 51.4 °F /  10.8 °C 40.1 °F /  4.5 °C 30 in /  1015.1 hPa Calm   2 mph /  3.2 km/h 65 % 0 in /  0.0 mm
23:17 52 °F /  11.1 °C 39.7 °F /  4.3 °C 30 in /  1015.1 hPa WNW 1 mph /  1.6 km/h 2 mph /  3.2 km/h 63 % 0 in /  0.0 mm
23:22 51.1 °F /  10.6 °C 40.5 °F /  4.7 °C 30 in /  1015.1 hPa Calm   1 mph /  1.6 km/h 67 % 0 in /  0.0 mm
23:32 50.4 °F /  10.2 °C 39.4 °F /  4.1 °C 30 in /  1015.1 hPa WNW 2 mph /  3.2 km/h 2 mph /  3.2 km/h 66 % 0 in /  0.0 mm
23:37 50.2 °F /  10.1 °C 39.6 °F /  4.2 °C 30 in /  1015.1 hPa WNW 2 mph /  3.2 km/h 2 mph /  3.2 km/h 67 % 0 in /  0.0 mm
23:42 50.4 °F /  10.2 °C 39.7 °F /  4.3 °C 30 in /  1015.1 hPa West 2 mph /  3.2 km/h 2 mph /  3.2 km/h 67 % 0 in /  0.0 mm
23:47 50.5 °F /  10.3 °C 40.5 °F /  4.7 °C 30 in /  1014.8 hPa WNW 1 mph /  1.6 km/h 2 mph /  3.2 km/h 68 % 0 in /  0.0 mm
23:52 50.5 °F /  10.3 °C 40.5 °F /  4.7 °C 30 in /  1014.8 hPa WNW 2 mph /  3.2 km/h 2 mph /  3.2 km/h 68 % 0 in /  0.0 mm
23:57 50.2 °F /  10.1 °C 39.6 °F /  4.2 °C 30 in /  1015.1 hPa North 2 mph /  3.2 km/h 2 mph /  3.2 km/h 67 % 0 in /  0.0 mm
Meteo18
Compliments of Weather Underground - 4 mb

Script developed by  Jim McMurry - jmcmurry@mwt.net Adapted for the template by  Wim van der Kuil - Leuven-Template.eu

You find our weather info also at:

European Weather Network

Weather Underground

Equipment we use:

Weather-station
Davis Vue

Weather-program
Meteohub

Weather-server
Raspberry PI 2 B+

Provider
1 and 1

Davis Vue

Meteohub

Raspberry PI 2 B+

1 and 1